createdAt,value
2022-12-06T00:01:14.946Z,48.88
2022-12-06T00:03:42.726Z,48.89
2022-12-06T00:06:11.534Z,49.05
2022-12-06T00:08:38.272Z,49.22
2022-12-06T00:11:20.919Z,49.27
2022-12-06T00:13:47.584Z,49.03
2022-12-06T00:16:15.927Z,49.46
2022-12-06T00:18:43.341Z,49.39
2022-12-06T00:21:09.816Z,49.26
2022-12-06T00:23:38.256Z,49.32
2022-12-06T00:26:05.368Z,49.51
2022-12-06T00:28:32.500Z,49.46
2022-12-06T00:31:00.137Z,49.46
2022-12-06T00:33:27.334Z,49.77
2022-12-06T00:36:00.717Z,49.50
2022-12-06T00:38:27.836Z,49.40
2022-12-06T00:41:05.861Z,49.50
2022-12-06T00:43:32.873Z,49.40
2022-12-06T00:45:59.923Z,49.67
2022-12-06T00:48:26.795Z,49.61
2022-12-06T00:50:53.506Z,49.68
2022-12-06T00:53:20.244Z,49.58
2022-12-06T00:55:47.156Z,49.45
2022-12-06T00:58:13.725Z,49.84
2022-12-06T01:00:40.440Z,49.76
2022-12-06T01:03:07.271Z,49.94
2022-12-06T01:05:33.939Z,49.92
2022-12-06T01:08:00.566Z,50.04
2022-12-06T01:10:27.262Z,50.12
2022-12-06T01:12:53.877Z,50.12
2022-12-06T01:15:20.569Z,49.95
2022-12-06T01:17:47.196Z,50.01
2022-12-06T01:20:13.781Z,49.98
2022-12-06T01:22:40.377Z,50.16
2022-12-06T01:25:07.337Z,50.02
2022-12-06T01:27:33.925Z,50.28
2022-12-06T01:30:00.969Z,50.40
2022-12-06T01:32:29.306Z,50.34
2022-12-06T01:34:56.402Z,50.79
2022-12-06T01:37:23.031Z,50.43
2022-12-06T01:39:49.708Z,50.53
2022-12-06T01:42:16.369Z,50.40
2022-12-06T01:44:42.970Z,50.61
2022-12-06T01:47:36.468Z,50.72
2022-12-06T01:50:19.188Z,50.51
2022-12-06T01:52:53.472Z,50.93
2022-12-06T01:55:25.810Z,50.73
2022-12-06T01:57:52.371Z,50.77
2022-12-06T02:00:19.457Z,50.80
2022-12-06T02:02:46.265Z,50.86
2022-12-06T02:05:13.463Z,50.96
2022-12-06T02:07:40.126Z,51.05
2022-12-06T02:10:07.442Z,51.01
2022-12-06T02:12:34.089Z,50.99
2022-12-06T02:15:00.738Z,51.16
2022-12-06T02:17:45.721Z,51.21
2022-12-06T02:20:23.736Z,51.21
2022-12-06T02:23:09.392Z,51.53
2022-12-06T02:25:43.658Z,51.57
2022-12-06T02:28:37.812Z,51.29
2022-12-06T02:31:08.794Z,51.15
2022-12-06T02:33:49.303Z,51.17
2022-12-06T02:36:33.039Z,51.21
2022-12-06T02:39:09.362Z,51.21
2022-12-06T02:41:40.302Z,51.25
2022-12-06T02:44:09.037Z,51.21
2022-12-06T02:46:36.884Z,51.33
2022-12-06T02:49:04.751Z,51.22
2022-12-06T02:51:32.278Z,51.29
2022-12-06T02:54:00.055Z,51.45
2022-12-06T02:56:26.720Z,51.45
2022-12-06T02:58:53.398Z,51.58
2022-12-06T03:01:31.146Z,51.56
2022-12-06T03:04:13.510Z,51.56
2022-12-06T03:06:51.948Z,51.78
2022-12-06T03:09:25.110Z,51.46
2022-12-06T03:12:05.997Z,51.60
2022-12-06T03:14:56.407Z,51.81
2022-12-06T03:17:55.321Z,51.67
2022-12-06T03:20:32.032Z,51.63
2022-12-06T03:23:02.419Z,51.96
2022-12-06T03:25:29.051Z,51.76
2022-12-06T03:27:55.767Z,51.95
2022-12-06T03:30:22.571Z,51.84
2022-12-06T03:32:49.461Z,51.72
2022-12-06T03:35:19.448Z,51.85
2022-12-06T03:37:47.921Z,51.79
2022-12-06T03:40:23.822Z,51.82
2022-12-06T03:42:50.423Z,51.76
2022-12-06T03:45:17.266Z,51.58
2022-12-06T03:48:19.508Z,51.75
2022-12-06T03:50:58.385Z,51.82
2022-12-06T03:53:25.543Z,51.70
2022-12-06T03:55:52.484Z,51.62
2022-12-06T03:58:19.194Z,51.46
2022-12-06T04:00:45.930Z,51.76
2022-12-06T04:03:12.553Z,51.85
2022-12-06T04:05:39.087Z,51.95
2022-12-06T04:08:06.398Z,51.67
2022-12-06T04:10:33.026Z,51.70
2022-12-06T04:13:02.449Z,51.86
2022-12-06T04:15:30.897Z,51.40
2022-12-06T04:18:14.515Z,51.84
2022-12-06T04:21:15.334Z,51.75
2022-12-06T04:23:43.332Z,51.67
2022-12-06T04:26:11.843Z,51.53
2022-12-06T04:28:57.108Z,51.75
2022-12-06T04:31:42.368Z,51.90
2022-12-06T04:34:27.776Z,51.76
2022-12-06T04:37:14.783Z,51.57
2022-12-06T04:39:41.454Z,51.93
2022-12-06T04:42:26.537Z,51.56
2022-12-06T04:44:53.136Z,52.12
2022-12-06T04:47:19.710Z,51.82
2022-12-06T04:49:46.347Z,51.89
2022-12-06T04:52:15.915Z,51.77
2022-12-06T04:54:42.607Z,51.74
2022-12-06T04:57:11.641Z,51.85
2022-12-06T04:59:39.035Z,51.91
2022-12-06T05:02:06.009Z,51.84
2022-12-06T05:04:32.971Z,51.77
2022-12-06T05:06:59.577Z,51.70
2022-12-06T05:09:26.335Z,51.74
2022-12-06T05:11:52.911Z,52.02
2022-12-06T05:14:20.211Z,51.65
2022-12-06T05:16:46.841Z,51.83
2022-12-06T05:19:13.886Z,51.67
2022-12-06T05:21:40.481Z,51.66
2022-12-06T05:24:07.411Z,51.78
2022-12-06T05:26:34.040Z,51.75
2022-12-06T05:29:00.717Z,51.75
2022-12-06T05:31:27.471Z,51.88
2022-12-06T05:33:54.161Z,52.12
2022-12-06T05:36:25.812Z,51.89
2022-12-06T05:38:52.472Z,51.92
2022-12-06T05:41:20.182Z,51.74
2022-12-06T05:43:46.732Z,51.42
2022-12-06T05:46:13.375Z,52.00
2022-12-06T05:48:40.031Z,52.16
2022-12-06T05:51:06.599Z,52.04
2022-12-06T05:53:33.296Z,51.96
2022-12-06T05:56:06.851Z,52.16
2022-12-06T05:58:33.398Z,52.01
2022-12-06T06:00:59.908Z,51.55
2022-12-06T06:03:26.557Z,51.59
2022-12-06T06:05:56.382Z,51.81
2022-12-06T06:08:22.904Z,51.53
2022-12-06T06:10:49.446Z,51.79
2022-12-06T06:13:16.056Z,52.10
2022-12-06T06:15:42.616Z,51.85
2022-12-06T06:18:09.122Z,52.07
2022-12-06T06:20:35.698Z,51.92
2022-12-06T06:23:02.186Z,51.53
2022-12-06T06:25:28.703Z,52.11
2022-12-06T06:27:57.947Z,52.50
2022-12-06T06:30:24.458Z,51.86
2022-12-06T06:32:50.981Z,52.37
2022-12-06T06:35:17.615Z,52.19
2022-12-06T06:37:44.232Z,52.21
2022-12-06T06:40:11.429Z,52.41
2022-12-06T06:42:38.432Z,52.24
2022-12-06T06:45:05.884Z,52.18
2022-12-06T06:47:32.465Z,52.32
2022-12-06T06:49:59.312Z,52.21
2022-12-06T06:52:25.901Z,51.65
2022-12-06T06:54:52.577Z,50.01
2022-12-06T06:57:19.113Z,47.94
2022-12-06T06:59:46.000Z,45.92
2022-12-06T07:02:13.784Z,44.62
2022-12-06T07:04:40.469Z,43.54
2022-12-06T07:07:07.081Z,43.10
2022-12-06T07:09:33.926Z,42.26
2022-12-06T07:12:00.555Z,41.88
2022-12-06T07:14:27.140Z,41.69
2022-12-06T07:16:53.752Z,42.51
2022-12-06T07:19:20.348Z,43.66
2022-12-06T07:21:46.888Z,44.21
2022-12-06T07:24:13.532Z,45.05
2022-12-06T07:26:40.206Z,45.77
2022-12-06T07:29:06.727Z,45.90
2022-12-06T07:31:33.840Z,46.21
2022-12-06T07:34:01.414Z,45.60
2022-12-06T07:36:30.193Z,44.88
2022-12-06T07:38:57.751Z,45.63
2022-12-06T07:41:43.797Z,46.04
2022-12-06T07:44:29.835Z,46.45
2022-12-06T07:46:56.438Z,46.28
2022-12-06T07:49:23.115Z,44.81
2022-12-06T07:51:49.842Z,45.24
2022-12-06T07:54:16.538Z,45.53
2022-12-06T07:56:43.110Z,46.00
2022-12-06T07:59:09.729Z,46.25
2022-12-06T08:01:36.450Z,46.39
2022-12-06T08:04:03.478Z,46.56
2022-12-06T08:06:30.867Z,46.65
2022-12-06T08:08:57.407Z,46.25
2022-12-06T08:11:24.409Z,46.97
2022-12-06T08:13:51.041Z,47.09
2022-12-06T08:16:17.839Z,47.04
2022-12-06T08:18:44.436Z,47.33
2022-12-06T08:21:11.043Z,47.20
2022-12-06T08:23:37.637Z,47.47
2022-12-06T08:26:06.300Z,47.46
2022-12-06T08:28:33.986Z,47.63
2022-12-06T08:31:04.714Z,47.95
2022-12-06T08:33:32.889Z,47.81
2022-12-06T08:35:59.471Z,47.79
2022-12-06T08:38:26.032Z,47.90
2022-12-06T08:40:52.557Z,47.87
2022-12-06T08:43:19.118Z,47.85
2022-12-06T08:45:50.478Z,48.21
2022-12-06T08:48:17.003Z,48.35
2022-12-06T08:50:43.545Z,48.57
2022-12-06T08:53:10.053Z,48.27
2022-12-06T08:55:36.605Z,48.12
2022-12-06T08:58:03.112Z,48.25
2022-12-06T09:00:29.651Z,48.02
2022-12-06T09:02:56.437Z,48.23
2022-12-06T09:05:22.978Z,48.40
2022-12-06T09:07:49.562Z,48.67
2022-12-06T09:10:16.131Z,48.09
2022-12-06T09:12:42.649Z,48.43
2022-12-06T09:15:09.477Z,48.44
2022-12-06T09:17:36.023Z,48.41
2022-12-06T09:20:06.116Z,48.49
2022-12-06T09:22:35.370Z,48.67
2022-12-06T09:25:01.945Z,48.36
2022-12-06T09:27:29.814Z,48.73
2022-12-06T09:29:56.376Z,48.43
2022-12-06T09:32:22.928Z,49.05
2022-12-06T09:34:49.448Z,48.60
2022-12-06T09:37:15.947Z,48.70
2022-12-06T09:40:11.874Z,48.81
2022-12-06T09:42:47.341Z,48.79
2022-12-06T09:45:29.250Z,48.83
2022-12-06T09:47:55.713Z,49.00
2022-12-06T09:51:03.753Z,48.73
2022-12-06T09:53:30.118Z,48.52
2022-12-06T09:55:56.528Z,48.71
2022-12-06T09:58:54.388Z,48.79
2022-12-06T10:01:37.500Z,48.91
2022-12-06T10:04:28.387Z,48.83
2022-12-06T10:07:07.032Z,49.04
2022-12-06T10:09:55.021Z,48.83
2022-12-06T10:12:30.120Z,48.91
2022-12-06T10:15:11.746Z,49.04
2022-12-06T10:18:09.693Z,49.05
2022-12-06T10:20:50.104Z,48.85
2022-12-06T10:23:23.298Z,49.21
2022-12-06T10:26:05.495Z,48.82
2022-12-06T10:28:52.660Z,49.12
2022-12-06T10:31:23.007Z,49.09
2022-12-06T10:34:20.167Z,49.02
2022-12-06T10:37:14.515Z,49.11
2022-12-06T10:40:36.591Z,49.01
2022-12-06T10:43:09.984Z,49.08
2022-12-06T10:46:07.172Z,48.89
2022-12-06T10:48:39.567Z,49.04
2022-12-06T10:51:18.840Z,48.89
2022-12-06T10:53:49.063Z,49.00
2022-12-06T10:56:21.079Z,49.18
2022-12-06T10:58:52.632Z,48.98
2022-12-06T11:01:22.283Z,49.12
2022-12-06T11:04:04.003Z,49.20
2022-12-06T11:06:54.353Z,49.21
2022-12-06T11:09:34.187Z,49.31
2022-12-06T11:12:00.683Z,49.19
2022-12-06T11:14:33.139Z,49.17
2022-12-06T11:17:02.101Z,49.21
2022-12-06T11:20:12.125Z,49.34
2022-12-06T11:22:53.569Z,49.00
2022-12-06T11:25:29.872Z,49.17
2022-12-06T11:28:00.354Z,49.24
2022-12-06T11:30:26.873Z,49.34
2022-12-06T11:32:53.759Z,49.60
2022-12-06T11:35:25.196Z,49.18
2022-12-06T11:37:56.559Z,49.24
2022-12-06T11:40:30.540Z,49.30
2022-12-06T11:42:59.377Z,49.04
2022-12-06T11:45:27.763Z,49.33
2022-12-06T11:47:55.331Z,49.16
2022-12-06T11:50:22.079Z,49.26
2022-12-06T11:52:48.450Z,49.23
2022-12-06T11:55:19.868Z,49.23
2022-12-06T11:57:52.683Z,49.26
2022-12-06T12:00:24.371Z,49.29
2022-12-06T12:02:52.521Z,49.10
2022-12-06T12:05:26.864Z,49.22
2022-12-06T12:07:57.982Z,49.21
2022-12-06T12:10:26.385Z,49.40
2022-12-06T12:13:11.627Z,49.10
2022-12-06T12:15:39.582Z,49.22
2022-12-06T12:18:06.178Z,49.33
2022-12-06T12:20:39.684Z,49.41
2022-12-06T12:23:14.933Z,49.36
2022-12-06T12:25:43.742Z,49.31
2022-12-06T12:28:27.233Z,49.42
2022-12-06T12:30:55.088Z,49.35
2022-12-06T12:33:22.970Z,49.35
2022-12-06T12:36:16.788Z,49.53
2022-12-06T12:38:49.123Z,49.40
2022-12-06T12:41:21.594Z,49.50
2022-12-06T12:44:28.453Z,49.26
2022-12-06T12:46:45.836Z,49.20
2022-12-06T12:49:34.506Z,49.22
2022-12-06T12:52:02.300Z,49.05
2022-12-06T12:54:36.551Z,49.16
2022-12-06T12:57:13.258Z,49.47
2022-12-06T12:59:40.455Z,49.32
2022-12-06T13:02:23.384Z,49.17
2022-12-06T13:05:24.946Z,49.43
2022-12-06T13:07:47.794Z,49.83
2022-12-06T13:10:18.587Z,49.33
2022-12-06T13:12:47.687Z,49.34
2022-12-06T13:15:18.885Z,49.34
2022-12-06T13:17:48.009Z,49.36
2022-12-06T13:20:22.363Z,49.29
2022-12-06T13:22:50.781Z,49.55
2022-12-06T13:25:17.406Z,49.38
2022-12-06T13:27:45.663Z,49.38
2022-12-06T13:30:22.900Z,49.79
2022-12-06T13:32:58.423Z,49.50
2022-12-06T13:35:33.860Z,49.46
2022-12-06T13:38:26.159Z,49.52
2022-12-06T13:41:03.048Z,49.32
2022-12-06T13:43:29.465Z,49.11
2022-12-06T13:46:19.440Z,49.29
2022-12-06T13:48:59.287Z,49.47
2022-12-06T13:51:32.560Z,49.47
2022-12-06T13:54:05.210Z,49.49
2022-12-06T13:56:34.523Z,49.33
2022-12-06T13:59:05.381Z,49.33
2022-12-06T14:01:39.770Z,49.35
2022-12-06T14:06:52.503Z,49.39
2022-12-06T14:09:19.077Z,49.56
2022-12-06T14:11:45.701Z,49.45
2022-12-06T14:14:22.995Z,49.60
2022-12-06T14:16:59.567Z,49.60
2022-12-06T14:19:42.320Z,49.45
2022-12-06T14:22:19.515Z,49.57
2022-12-06T14:25:05.594Z,49.54
2022-12-06T14:27:41.615Z,49.37
2022-12-06T14:30:28.991Z,49.60
2022-12-06T14:32:56.794Z,49.51
2022-12-06T14:35:28.867Z,49.56
2022-12-06T14:37:56.366Z,48.95
2022-12-06T14:40:56.274Z,49.42
2022-12-06T14:43:24.074Z,49.63
2022-12-06T14:45:51.058Z,49.72
2022-12-06T14:48:17.571Z,49.45
2022-12-06T14:50:48.778Z,48.42
2022-12-06T14:53:27.484Z,45.76
2022-12-06T14:56:16.927Z,45.28
2022-12-06T14:58:43.556Z,45.58
2022-12-06T15:01:21.352Z,46.55
2022-12-06T15:04:01.259Z,46.94
2022-12-06T15:06:29.782Z,47.05
2022-12-06T15:09:00.883Z,47.33
2022-12-06T15:11:55.137Z,47.66
2022-12-06T15:14:28.555Z,47.73
2022-12-06T15:17:06.420Z,48.00
2022-12-06T15:19:34.230Z,47.98
2022-12-06T15:22:00.920Z,48.53
2022-12-06T15:24:28.311Z,48.33
2022-12-06T15:26:55.003Z,48.59
2022-12-06T15:29:21.767Z,48.90
2022-12-06T15:31:49.878Z,48.78
2022-12-06T15:34:23.437Z,48.92
2022-12-06T15:36:55.921Z,49.14
2022-12-06T15:39:35.754Z,49.28
2022-12-06T15:42:02.710Z,49.16
2022-12-06T15:44:29.317Z,48.95
2022-12-06T15:46:56.017Z,48.97
2022-12-06T15:49:25.809Z,48.97
2022-12-06T15:51:54.520Z,49.18
2022-12-06T15:54:25.366Z,49.10
2022-12-06T15:56:52.124Z,49.33
2022-12-06T15:59:18.915Z,49.23
2022-12-06T16:01:50.816Z,49.41
2022-12-06T16:04:21.051Z,49.32
2022-12-06T16:06:47.978Z,49.22
2022-12-06T16:09:15.566Z,49.18
2022-12-06T16:11:42.269Z,49.26
2022-12-06T16:14:09.042Z,49.26
2022-12-06T16:16:41.490Z,49.23
2022-12-06T16:19:09.750Z,49.17
2022-12-06T16:21:37.765Z,49.25
2022-12-06T16:24:13.811Z,49.24
2022-12-06T16:26:45.216Z,48.98
2022-12-06T16:29:17.096Z,49.31
2022-12-06T16:31:43.920Z,49.27
2022-12-06T16:34:10.491Z,49.32
2022-12-06T16:36:56.475Z,49.10
2022-12-06T16:39:23.000Z,49.50
2022-12-06T16:41:49.632Z,49.47
2022-12-06T16:44:16.243Z,49.54
2022-12-06T16:46:42.974Z,49.39
2022-12-06T16:49:45.171Z,49.42
2022-12-06T16:52:06.442Z,49.47
2022-12-06T16:54:33.163Z,49.28
2022-12-06T16:56:59.770Z,49.19
2022-12-06T16:59:26.360Z,47.87
2022-12-06T17:01:54.323Z,48.13
2022-12-06T17:04:20.989Z,48.39
2022-12-06T17:06:47.567Z,48.40
2022-12-06T17:09:14.450Z,48.43
2022-12-06T17:11:59.675Z,48.51
2022-12-06T17:14:26.495Z,48.52
2022-12-06T17:16:53.421Z,48.59
2022-12-06T17:19:21.814Z,48.70
2022-12-06T17:21:48.721Z,48.84
2022-12-06T17:26:50.767Z,48.89
2022-12-06T17:29:17.565Z,49.17
2022-12-06T17:31:44.188Z,49.07
2022-12-06T17:34:12.262Z,49.11
2022-12-06T17:36:38.964Z,49.53
2022-12-06T17:39:09.518Z,49.39
2022-12-06T17:41:55.849Z,49.56
2022-12-06T17:44:22.439Z,49.56
2022-12-06T17:46:57.007Z,49.72
2022-12-06T17:49:24.696Z,49.70
2022-12-06T17:51:51.476Z,49.80
2022-12-06T17:54:19.320Z,49.63
2022-12-06T17:57:11.839Z,49.56
2022-12-06T18:02:16.538Z,49.52
2022-12-06T18:04:44.121Z,49.60
2022-12-06T18:07:11.874Z,49.82
2022-12-06T18:09:38.449Z,49.93
2022-12-06T18:12:05.113Z,49.74
2022-12-06T18:14:31.804Z,49.77
2022-12-06T18:16:58.551Z,49.46
2022-12-06T18:19:26.223Z,49.58
2022-12-06T18:21:55.170Z,50.00
2022-12-06T18:24:24.599Z,49.90
2022-12-06T18:26:54.442Z,50.45
2022-12-06T18:29:22.859Z,50.04
2022-12-06T18:31:49.715Z,49.92
2022-12-06T18:34:16.375Z,50.15
2022-12-06T18:36:42.959Z,49.91
2022-12-06T18:39:15.034Z,49.90
2022-12-06T18:41:42.781Z,49.73
2022-12-06T18:44:09.411Z,49.70
2022-12-06T18:46:36.851Z,49.69
2022-12-06T18:49:05.632Z,50.24
2022-12-06T18:51:33.560Z,49.97
2022-12-06T18:54:02.212Z,49.89
2022-12-06T18:56:30.411Z,49.93
2022-12-06T18:59:00.818Z,49.93
2022-12-06T19:01:29.022Z,49.86
2022-12-06T19:03:56.286Z,49.90
2022-12-06T19:06:24.308Z,49.82
2022-12-06T19:08:51.553Z,49.99
2022-12-06T19:11:18.097Z,49.82
2022-12-06T19:13:55.719Z,49.99
2022-12-06T19:16:36.625Z,50.13
2022-12-06T19:19:04.279Z,50.78
2022-12-06T19:21:32.647Z,50.76
2022-12-06T19:23:59.239Z,50.88
2022-12-06T19:26:26.162Z,50.92
2022-12-06T19:28:52.863Z,50.99
2022-12-06T19:31:20.588Z,50.95
2022-12-06T19:33:47.189Z,51.29
2022-12-06T19:36:15.756Z,50.92
2022-12-06T19:38:42.706Z,51.00
2022-12-06T19:41:11.847Z,51.17
2022-12-06T19:43:57.247Z,51.56
2022-12-06T19:46:28.165Z,51.35
2022-12-06T19:48:59.297Z,51.41
2022-12-06T19:51:28.838Z,51.22
2022-12-06T19:53:56.269Z,51.39
2022-12-06T19:56:22.823Z,51.45
2022-12-06T19:58:49.428Z,51.45
2022-12-06T20:01:17.835Z,51.35
2022-12-06T20:03:47.044Z,51.37
2022-12-06T20:06:18.372Z,51.42
2022-12-06T20:08:45.777Z,51.47
2022-12-06T20:11:33.795Z,51.42
2022-12-06T20:14:03.460Z,51.27
2022-12-06T20:16:32.249Z,51.23
2022-12-06T20:18:59.198Z,51.15
2022-12-06T20:21:25.788Z,51.17
2022-12-06T20:23:53.110Z,51.29
2022-12-06T20:26:19.739Z,51.09
2022-12-06T20:28:46.876Z,51.01
2022-12-06T20:31:16.283Z,51.02
2022-12-06T20:33:42.967Z,51.46
2022-12-06T20:36:12.436Z,50.93
2022-12-06T20:38:39.151Z,51.05
2022-12-06T20:41:13.362Z,50.81
2022-12-06T20:43:40.106Z,51.10
2022-12-06T20:46:14.554Z,50.86
2022-12-06T20:48:41.816Z,51.12
2022-12-06T20:51:15.693Z,50.69
2022-12-06T20:53:42.480Z,51.37
2022-12-06T20:56:10.387Z,51.04
2022-12-06T20:58:37.064Z,51.08
2022-12-06T21:01:03.902Z,50.99
2022-12-06T21:03:32.258Z,51.02
2022-12-06T21:06:03.193Z,51.08
2022-12-06T21:08:30.279Z,50.75
2022-12-06T21:11:21.572Z,50.91
2022-12-06T21:13:43.744Z,51.00
2022-12-06T21:16:29.607Z,50.70
2022-12-06T21:18:58.605Z,50.97
2022-12-06T21:21:27.213Z,50.66
2022-12-06T21:23:53.862Z,50.48
2022-12-06T21:26:20.466Z,50.73
2022-12-06T21:28:47.071Z,51.00
2022-12-06T21:31:13.921Z,51.09
2022-12-06T21:33:40.515Z,50.84
2022-12-06T21:36:07.277Z,50.96
2022-12-06T21:38:34.361Z,51.00
2022-12-06T21:41:13.377Z,50.84
2022-12-06T21:43:40.127Z,50.76
2022-12-06T21:46:20.064Z,50.95
2022-12-06T21:48:51.316Z,50.81
2022-12-06T21:51:18.106Z,50.90
2022-12-06T21:53:44.664Z,51.12
2022-12-06T21:56:22.088Z,50.77
2022-12-06T21:58:48.709Z,50.54
2022-12-06T22:01:17.882Z,50.57
2022-12-06T22:03:47.701Z,50.37
2022-12-06T22:06:14.256Z,50.23
2022-12-06T22:08:41.331Z,50.46
2022-12-06T22:11:19.194Z,50.50
2022-12-06T22:13:46.347Z,50.36
2022-12-06T22:16:13.134Z,50.78
2022-12-06T22:18:44.974Z,50.31
2022-12-06T22:21:17.237Z,50.44
2022-12-06T22:23:44.155Z,50.50
2022-12-06T22:26:13.672Z,50.50
2022-12-06T22:28:40.266Z,50.40
2022-12-06T22:31:26.344Z,50.72
2022-12-06T22:33:53.043Z,50.71
2022-12-06T22:36:20.388Z,50.50
2022-12-06T22:38:54.173Z,50.54
2022-12-06T22:41:20.957Z,51.09
2022-12-06T22:43:55.057Z,50.60
2022-12-06T22:46:21.789Z,50.49
2022-12-06T22:48:48.630Z,50.60
2022-12-06T22:51:15.115Z,50.52
2022-12-06T22:53:42.985Z,50.89
2022-12-06T22:56:09.620Z,50.56
2022-12-06T22:58:39.377Z,50.50
2022-12-06T23:01:11.876Z,50.58
2022-12-06T23:03:42.474Z,50.68
2022-12-06T23:06:09.259Z,50.69
2022-12-06T23:08:35.924Z,50.67
2022-12-06T23:11:15.888Z,50.55
2022-12-06T23:13:42.623Z,50.29
2022-12-06T23:16:12.295Z,50.35
2022-12-06T23:18:38.960Z,50.11
2022-12-06T23:21:08.424Z,50.26
2022-12-06T23:23:35.140Z,49.97
2022-12-06T23:26:04.886Z,50.02
2022-12-06T23:28:31.610Z,50.21
2022-12-06T23:31:15.127Z,50.14
2022-12-06T23:33:42.194Z,50.04
2022-12-06T23:36:13.792Z,50.16
2022-12-06T23:38:40.512Z,50.04
2022-12-06T23:41:18.050Z,50.17
2022-12-06T23:43:44.735Z,50.09
2022-12-06T23:46:13.030Z,50.10
2022-12-06T23:48:40.201Z,50.21
2022-12-06T23:51:14.013Z,50.15
2022-12-06T23:53:40.806Z,50.28
2022-12-06T23:56:08.458Z,50.13
2022-12-06T23:58:35.132Z,50.14
